Time;durP1;ratioP1;P1;durP2;ratioP2;P2;SDS_P1;SDS_P2;PMS_P1;PMS_P2;Temp;Humidity;BMP_temperature;BMP_pressure;BME280_temperature;BME280_humidity;BME280_pressure;Samples;Min_cycle;Max_cycle;Signal;HPM_P1;HPM_P2
2023/04/23 00:01:02;;;;;;;6.73;5.80;;;16.30;99.90;;;16.04;73.99;100027.88;5095272;28;20189;-79
2023/04/23 00:03:35;;;;;;;9.80;6.37;;;16.30;99.90;;;16.04;74.55;100019.75;5095172;28;20193;-79
2023/04/23 00:06:11;;;;;;;8.23;6.70;;;16.30;99.90;;;16.04;73.99;100027.03;5095073;28;20189;-78
2023/04/23 00:08:47;;;;;;;7.03;6.27;;;16.30;99.90;;;16.03;74.20;100025.38;5094979;28;20228;-78
2023/04/23 00:11:19;;;;;;;8.53;5.97;;;16.30;99.90;;;15.94;74.98;100023.94;5094950;28;20212;-78
2023/04/23 00:13:53;;;;;;;6.53;5.60;;;16.20;99.90;;;15.95;75.35;100020.22;5094980;28;20189;-78
2023/04/23 00:16:27;;;;;;;6.17;5.50;;;16.20;99.90;;;15.94;75.76;100022.09;5094659;28;20196;-78
2023/04/23 00:18:59;;;;;;;6.53;5.60;;;16.20;99.90;;;15.87;75.83;100017.75;5094715;28;20228;-78
2023/04/23 00:21:31;;;;;;;7.80;5.57;;;16.10;99.90;;;15.84;75.66;100020.88;5094810;28;20196;-78
2023/04/23 00:24:04;;;;;;;6.33;5.70;;;16.10;99.90;;;15.75;76.08;100011.34;5094671;28;20189;-78
2023/04/23 00:26:36;;;;;;;7.47;5.67;;;16.10;99.90;;;15.68;76.44;100016.75;5094722;28;20196;-78
2023/04/23 00:29:08;;;;;;;6.60;5.43;;;16.00;99.90;;;15.72;76.22;100008.00;5094765;28;20269;-78
2023/04/23 00:31:40;;;;;;;7.47;6.37;;;16.00;99.90;;;15.75;76.61;100011.34;5094298;28;20575;-78
2023/04/23 00:34:12;;;;;;;5.53;5.00;;;16.00;99.90;;;15.72;75.44;100009.88;5094583;28;20200;-78
2023/04/23 00:36:43;;;;;;;6.00;5.40;;;16.00;99.90;;;15.62;77.44;100012.19;5094642;28;20189;-78
2023/04/23 00:39:17;;;;;;;6.67;5.70;;;16.00;99.90;;;15.60;76.88;100011.56;5094625;28;20224;-78
2023/04/23 00:41:49;;;;;;;6.97;6.03;;;15.90;99.90;;;15.61;76.33;100005.16;5094659;28;20185;-78
2023/04/23 00:44:21;;;;;;;6.80;5.50;;;15.90;99.90;;;15.53;77.57;100005.38;5094736;28;20185;-78
2023/04/23 00:46:55;;;;;;;6.27;5.63;;;15.90;99.90;;;15.49;76.90;100004.94;5094355;28;20185;-78
2023/04/23 00:49:29;;;;;;;6.53;5.70;;;15.80;99.90;;;15.51;77.36;100004.75;5094593;28;20225;-78
2023/04/23 00:52:01;;;;;;;6.63;5.80;;;15.80;99.90;;;15.52;77.04;100001.81;5094528;28;20239;-78
2023/04/23 00:54:34;;;;;;;7.03;5.47;;;15.80;99.90;;;15.45;77.08;99992.06;5094416;28;20192;-78
2023/04/23 00:57:06;;;;;;;5.80;5.30;;;15.80;99.90;;;15.45;76.60;99994.75;5094169;28;20196;-78
2023/04/23 00:59:38;;;;;;;7.53;5.50;;;15.80;99.90;;;15.42;77.06;99998.69;5094120;28;20303;-78
2023/04/23 01:02:10;;;;;;;5.80;5.20;;;15.80;99.90;;;15.34;77.48;99998.09;5094361;28;20185;-78
2023/04/23 01:04:43;;;;;;;5.93;5.10;;;15.70;99.90;;;15.33;77.48;99999.97;5097549;28;20189;-78
2023/04/23 01:07:15;;;;;;;8.07;5.50;;;15.70;99.90;;;15.39;77.13;100001.81;5093743;28;20568;-78
2023/04/23 01:09:49;;;;;;;6.63;5.10;;;15.70;99.90;;;15.35;77.69;99995.19;5094153;28;20193;-78
2023/04/23 01:12:22;;;;;;;6.57;5.43;;;15.70;99.90;;;15.37;77.86;99998.50;5094332;28;20205;-79
2023/04/23 01:14:54;;;;;;;8.77;5.53;;;15.70;99.90;;;15.39;77.32;100001.81;5094428;28;20196;-79
2023/04/23 01:17:26;;;;;;;6.13;5.47;;;15.70;99.90;;;15.32;77.53;99997.47;5094200;28;20204;-78
2023/04/23 01:19:58;;;;;;;6.83;5.40;;;15.60;99.90;;;15.34;77.96;100008.91;5093890;28;20633;-78
2023/04/23 01:22:31;;;;;;;5.53;5.03;;;15.60;99.90;;;15.36;77.75;99996.84;5094433;28;20182;-78
2023/04/23 01:25:04;;;;;;;5.77;5.20;;;15.60;99.90;;;15.35;77.97;100005.97;5094133;28;20189;-78
2023/04/23 01:27:37;;;;;;;5.27;4.73;;;15.60;99.90;;;15.37;76.81;100003.06;5093995;28;20192;-78
2023/04/23 01:30:11;;;;;;;7.97;6.37;;;15.60;99.90;;;15.33;77.86;100005.38;5094133;28;20184;-78
2023/04/23 01:32:43;;;;;;;7.20;6.20;;;15.60;99.90;;;15.31;78.04;100004.72;5094087;28;20216;-78
2023/04/23 01:35:15;;;;;;;6.43;5.60;;;15.60;99.90;;;15.30;77.91;100002.25;5094390;28;20230;-78
2023/04/23 01:37:51;;;;;;;6.97;5.63;;;15.60;99.90;;;15.32;78.15;99995.59;5094069;28;20235;-78
2023/04/23 01:40:23;;;;;;;7.00;5.33;;;15.60;99.90;;;15.31;78.95;99998.53;5094193;28;20203;-78
2023/04/23 01:42:55;;;;;;;6.30;5.70;;;15.60;99.90;;;15.30;78.50;99997.69;5093839;28;20207;-78
2023/04/23 01:45:27;;;;;;;8.27;6.10;;;15.60;99.90;;;15.22;79.00;99996.03;5094215;28;20188;-78
2023/04/23 01:47:59;;;;;;;6.80;5.50;;;15.50;99.90;;;15.23;79.53;99997.69;5094128;28;20247;-78
2023/04/23 01:50:31;;;;;;;6.93;6.23;;;15.50;99.90;;;15.17;79.57;100003.09;5094289;28;20205;-78
2023/04/23 01:53:04;;;;;;;6.93;5.73;;;15.50;99.90;;;15.15;79.45;99999.75;5094190;28;20223;-78
2023/04/23 01:55:37;;;;;;;7.70;6.27;;;15.50;99.90;;;15.05;80.55;100023.59;5094350;28;20192;-79
2023/04/23 01:58:09;;;;;;;8.83;7.90;;;15.40;99.90;;;14.88;79.37;100022.34;5094899;28;20225;-78
2023/04/23 02:00:41;;;;;;;10.33;9.33;;;15.30;99.90;;;14.69;78.59;100019.41;5094436;28;20676;-78
2023/04/23 02:03:13;;;;;;;12.20;11.03;;;15.20;99.90;;;14.48;79.43;100010.66;5095006;28;20219;-78
2023/04/23 02:05:46;;;;;;;13.73;12.33;;;15.00;99.90;;;14.44;79.81;100015.63;5095150;28;20197;-78
2023/04/23 02:08:19;;;;;;;13.77;12.40;;;14.90;99.90;;;14.43;79.69;100019.34;5094387;28;20323;-78
2023/04/23 02:10:50;;;;;;;13.80;12.50;;;14.80;99.90;;;14.30;80.01;100021.13;5094030;28;20200;-79
2023/04/23 02:13:23;;;;;;;15.93;13.57;;;14.70;99.90;;;14.20;80.30;100016.13;5093981;28;20631;-79
2023/04/23 02:15:57;;;;;;;16.23;14.73;;;14.60;99.90;;;14.04;81.29;100019.19;5094698;28;20221;-79
2023/04/23 02:18:29;;;;;;;15.97;14.27;;;14.50;99.90;;;14.18;80.77;100018.19;5097032;28;20228;-79
2023/04/23 02:21:02;;;;;;;16.20;14.60;;;14.50;99.90;;;14.29;80.88;100024.84;5098722;28;20192;-79
2023/04/23 02:23:35;;;;;;;15.13;13.67;;;14.70;99.90;;;14.27;79.98;100025.06;5098743;28;20189;-79
2023/04/23 02:26:07;;;;;;;16.37;14.67;;;14.60;99.90;;;14.30;80.09;100019.28;5098483;28;20637;-79
2023/04/23 02:28:40;;;;;;;17.57;15.67;;;14.60;99.90;;;14.04;79.48;100027.25;5097892;28;20227;-78
2023/04/23 02:31:12;;;;;;;18.30;16.50;;;14.50;99.90;;;14.06;79.91;100025.19;5099578;28;20208;-79
2023/04/23 02:33:45;;;;;;;18.43;16.60;;;14.50;99.90;;;14.01;79.85;100035.69;5098470;28;20594;-79
2023/04/23 02:36:17;;;;;;;20.13;18.13;;;14.50;99.90;;;13.98;79.58;100030.72;5098195;28;20543;-79
2023/04/23 02:38:50;;;;;;;19.37;17.47;;;14.40;99.90;;;14.02;79.35;100034.69;5098726;28;20225;-79
2023/04/23 02:41:22;;;;;;;20.47;18.37;;;14.40;99.90;;;13.88;80.27;100032.94;5098536;28;20185;-79
2023/04/23 02:43:54;;;;;;;20.07;18.07;;;14.30;99.90;;;13.83;80.36;100043.50;5098308;28;20555;-79
2023/04/23 02:46:27;;;;;;;20.67;18.57;;;14.20;99.90;;;13.90;80.14;100037.13;5097961;28;20201;-79
2023/04/23 02:48:59;;;;;;;20.27;18.27;;;14.30;99.90;;;13.83;80.22;100047.00;5098132;28;20224;-79
2023/04/23 02:51:31;;;;;;;19.27;17.37;;;14.30;99.90;;;13.91;79.67;100054.06;5097792;28;20641;-79
2023/04/23 02:54:04;;;;;;;20.60;18.53;;;14.30;99.90;;;13.86;79.87;100051.16;5097961;28;20243;-79
2023/04/23 02:56:36;;;;;;;21.83;19.53;;;14.30;99.90;;;13.84;80.00;100048.66;5097921;28;20193;-79
2023/04/23 02:59:10;;;;;;;22.00;19.77;;;14.20;99.90;;;13.84;80.12;100056.72;5097634;28;20785;-78
2023/04/23 03:01:42;;;;;;;23.63;21.10;;;14.20;99.90;;;13.73;80.21;100051.09;5098585;28;20201;-78
2023/04/23 03:04:14;;;;;;;21.60;19.40;;;14.10;99.90;;;13.84;79.64;100058.56;5098297;28;20212;-79
2023/04/23 03:06:46;;;;;;;22.13;19.70;;;14.20;99.90;;;13.73;79.86;100052.72;5098804;28;20189;-79
2023/04/23 03:09:19;;;;;;;21.73;19.53;;;14.10;99.90;;;13.65;80.17;100050.22;5097424;28;20236;-78
2023/04/23 03:11:52;;;;;;;22.63;19.60;;;14.00;99.90;;;13.56;80.20;100051.38;5097313;28;20190;-78
2023/04/23 03:14:23;;;;;;;22.13;19.93;;;14.00;99.90;;;13.54;80.12;100056.13;5097406;28;20201;-78
2023/04/23 03:16:55;;;;;;;22.67;20.27;;;13.90;99.90;;;13.41;79.34;100053.34;5097098;28;20197;-78
2023/04/23 03:19:27;;;;;;;23.90;21.30;;;13.90;99.90;;;13.49;81.00;100052.38;5097326;28;20739;-78
2023/04/23 03:21:59;;;;;;;22.83;20.33;;;13.80;99.90;;;13.56;80.19;100058.63;5097592;28;20193;-78
2023/04/23 03:24:32;;;;;;;23.60;21.10;;;13.90;99.90;;;13.56;80.03;100055.94;5097987;28;20189;-79
2023/04/23 03:27:04;;;;;;;25.47;22.73;;;13.90;99.90;;;13.41;81.16;100053.34;5097565;28;20186;-79
2023/04/23 03:29:36;;;;;;;24.80;21.00;;;13.80;99.90;;;13.41;80.15;100052.50;5096728;28;20224;-78
2023/04/23 03:32:08;;;;;;;28.00;23.13;;;13.80;99.90;;;13.25;81.22;100058.16;5097680;28;20200;-79
2023/04/23 03:34:39;;;;;;;25.67;22.83;;;13.70;99.90;;;13.14;80.87;100046.09;5097954;28;20198;-79
2023/04/23 03:37:12;;;;;;;27.17;24.10;;;13.60;99.90;;;13.23;81.13;100060.19;5098087;28;20193;-79
2023/04/23 03:39:45;;;;;;;29.67;24.40;;;13.60;99.90;;;13.28;81.60;100061.31;5097171;28;20274;-78
2023/04/23 03:42:17;;;;;;;27.30;23.40;;;13.70;99.90;;;13.23;80.60;100065.56;5097057;28;20197;-78
2023/04/23 03:44:49;;;;;;;27.17;23.93;;;13.60;99.90;;;13.20;81.56;100056.88;5095822;28;20649;-78
2023/04/23 03:47:21;;;;;;;26.57;23.73;;;13.60;99.90;;;13.21;82.15;100063.09;5095430;28;20558;-78
2023/04/23 03:49:53;;;;;;;26.67;23.47;;;13.60;99.90;;;13.12;81.01;100058.88;5095734;28;20242;-78
2023/04/23 03:52:25;;;;;;;24.77;22.07;;;13.50;99.90;;;13.19;80.92;100059.75;5095573;28;20216;-78
2023/04/23 03:54:58;;;;;;;26.47;23.57;;;13.60;99.90;;;13.17;81.43;100067.19;5095405;28;20189;-78
2023/04/23 03:57:30;;;;;;;28.73;25.13;;;13.60;99.90;;;13.08;81.50;100063.75;5095075;28;20192;-78
2023/04/23 04:00:02;;;;;;;27.63;24.73;;;13.50;99.90;;;13.12;81.56;100061.56;5095063;28;20220;-78
2023/04/23 04:02:34;;;;;;;27.77;24.17;;;13.50;99.90;;;13.14;82.01;100068.41;5095328;28;20196;-78
2023/04/23 04:05:08;;;;;;;26.60;23.77;;;13.50;99.90;;;13.14;81.50;100073.78;5095324;28;20250;-78
2023/04/23 04:07:40;;;;;;;27.00;23.50;;;13.50;99.90;;;13.16;80.87;100070.91;5095436;28;20253;-78
2023/04/23 04:10:13;;;;;;;26.13;23.33;;;13.50;99.90;;;13.17;80.75;100072.56;5094924;28;20638;-78
2023/04/23 04:12:46;;;;;;;26.80;24.00;;;13.50;99.90;;;13.23;82.19;100076.31;5095170;28;20212;-78
2023/04/23 04:15:19;;;;;;;27.27;24.40;;;13.60;99.90;;;13.26;81.98;100081.31;5095348;28;20197;-79
2023/04/23 04:17:51;;;;;;;26.27;23.57;;;13.60;99.90;;;13.23;81.61;100082.53;5095156;28;20312;-78
2023/04/23 04:20:23;;;;;;;27.27;23.70;;;13.60;99.90;;;13.27;81.71;100074.91;5095104;28;20275;-78
2023/04/23 04:22:55;;;;;;;28.90;25.90;;;13.60;99.90;;;13.11;82.70;100084.94;5094978;28;20267;-79
2023/04/23 04:25:29;;;;;;;28.60;25.60;;;13.50;99.90;;;13.16;81.77;100081.66;5095136;28;20188;-79
2023/04/23 04:28:00;;;;;;;26.67;23.80;;;13.50;99.90;;;13.17;82.09;100088.69;5095585;28;20232;-79
2023/04/23 04:30:32;;;;;;;29.23;26.13;;;13.50;99.90;;;13.11;82.25;100086.78;5096019;28;20189;-79
2023/04/23 04:33:04;;;;;;;30.47;27.17;;;13.50;99.90;;;12.84;82.53;100092.88;5095574;28;20266;-79
2023/04/23 04:35:36;;;;;;;29.90;26.70;;;13.40;99.90;;;12.85;82.77;100099.91;5094738;28;20196;-78
2023/04/23 04:38:08;;;;;;;33.60;28.97;;;13.20;99.90;;;12.73;83.00;100102.28;5094988;28;20224;-79
2023/04/23 04:40:41;;;;;;;35.03;30.43;;;13.20;99.90;;;12.80;81.93;100107.72;5096090;28;20193;-79
2023/04/23 04:43:15;;;;;;;35.37;30.93;;;13.20;99.90;;;12.82;82.24;100105.66;5096125;28;20189;-79
2023/04/23 04:45:47;;;;;;;37.33;31.43;;;13.20;99.90;;;12.66;81.99;100107.56;5095765;28;20185;-79
2023/04/23 04:48:19;;;;;;;34.03;29.83;;;13.10;99.90;;;12.79;81.00;100101.50;5095756;28;20708;-79
2023/04/23 04:50:51;;;;;;;35.37;31.07;;;13.20;99.90;;;12.67;81.97;100111.09;5095830;28;20188;-79
2023/04/23 04:53:23;;;;;;;34.20;30.47;;;13.20;99.90;;;12.73;81.89;100107.66;5095841;28;20209;-79
2023/04/23 04:55:56;;;;;;;34.33;28.70;;;13.20;99.90;;;12.74;80.38;100120.03;5096333;28;20571;-79
2023/04/23 04:58:28;;;;;;;38.13;30.47;;;13.20;99.90;;;12.51;81.35;100122.03;5096132;28;20231;-78
2023/04/23 05:01:00;;;;;;;37.33;30.37;;;13.00;99.90;;;12.56;80.90;100112.41;5094071;28;20189;-78
2023/04/23 05:03:32;;;;;;;34.07;29.53;;;13.00;99.90;;;12.61;80.57;100123.41;5094680;28;20181;-78
2023/04/23 05:06:04;;;;;;;34.33;28.30;;;13.00;99.90;;;12.51;80.71;100127.41;5094356;28;20185;-78
2023/04/23 05:08:36;;;;;;;39.73;30.67;;;13.00;99.90;;;12.46;81.07;100127.16;5094894;28;20224;-79
2023/04/23 05:11:09;;;;;;;36.30;30.10;;;12.90;99.90;;;12.49;81.14;100138.34;5095410;28;20187;-78
2023/04/23 05:13:41;;;;;;;38.07;31.33;;;13.00;99.90;;;12.56;80.97;100133.88;5095187;28;20220;-78
2023/04/23 05:16:13;;;;;;;38.13;30.07;;;13.00;99.90;;;12.62;81.45;100140.34;5094668;28;20197;-78
2023/04/23 05:18:45;;;;;;;37.53;30.20;;;13.10;99.90;;;12.54;80.29;100149.34;5094003;28;20233;-79
2023/04/23 05:21:19;;;;;;;38.03;32.00;;;13.00;99.90;;;12.47;81.79;100151.09;5095949;28;20227;-79
2023/04/23 05:23:51;;;;;;;37.90;31.27;;;12.90;99.90;;;12.46;82.08;100149.47;5095755;28;20188;-78
2023/04/23 05:26:24;;;;;;;36.63;30.27;;;12.90;99.90;;;12.48;80.24;100143.88;5095159;28;20246;-78
2023/04/23 05:28:56;;;;;;;34.43;29.00;;;12.90;99.90;;;12.33;80.88;100143.09;5095064;28;20240;-79
2023/04/23 05:31:27;;;;;;;37.83;30.23;;;12.80;99.90;;;12.31;80.45;100147.78;5094170;28;20197;-78
2023/04/23 05:34:00;;;;;;;36.60;29.07;;;12.80;99.90;;;12.18;80.08;100135.03;5094852;28;20208;-78
2023/04/23 05:36:32;;;;;;;36.43;29.97;;;12.70;99.90;;;11.99;79.45;100148.97;5095348;28;20257;-78
2023/04/23 05:39:04;;;;;;;33.50;29.33;;;12.60;99.90;;;12.07;79.92;100148.91;5095488;28;20225;-78
2023/04/23 05:41:37;;;;;;;37.33;29.97;;;12.60;99.90;;;12.08;79.95;100145.22;5094980;28;20602;-78
2023/04/23 05:44:08;;;;;;;34.67;28.80;;;12.50;99.90;;;12.13;79.22;100143.63;5095081;28;20197;-79
2023/04/23 05:46:40;;;;;;;38.03;30.67;;;12.60;99.90;;;11.88;80.80;100150.28;5094859;28;20195;-78
2023/04/23 05:49:12;;;;;;;33.53;29.07;;;12.40;99.90;;;12.00;78.90;100158.69;5095400;28;20306;-79
2023/04/23 05:51:44;;;;;;;36.20;28.93;;;12.50;99.90;;;11.86;79.90;100162.19;5095064;28;20185;-78
2023/04/23 05:54:17;;;;;;;35.47;29.20;;;12.40;99.90;;;11.95;79.90;100155.75;5098976;28;20672;-78
2023/04/23 05:56:50;;;;;;;32.83;27.70;;;12.40;99.90;;;12.08;78.95;100153.25;5099290;28;20193;-78
2023/04/23 05:59:25;;;;;;;35.73;28.73;;;12.50;99.90;;;12.14;78.03;100149.81;5098815;28;20232;-78
2023/04/23 06:01:57;;;;;;;34.57;28.87;;;12.60;99.90;;;11.93;78.40;100152.41;5099130;28;20193;-78
2023/04/23 06:04:29;;;;;;;36.60;29.43;;;12.50;99.90;;;11.93;79.12;100165.81;5098959;28;20588;-78
2023/04/23 06:07:01;;;;;;;36.47;30.10;;;12.40;99.90;;;11.83;79.57;100165.25;5099681;28;20537;-78
2023/04/23 06:09:33;;;;;;;34.33;29.27;;;12.40;99.90;;;11.88;79.62;100169.06;5098840;28;20237;-79
2023/04/23 06:12:07;;;;;;;37.10;30.20;;;12.40;99.90;;;11.85;79.68;100171.28;5101918;28;20250;-78
2023/04/23 06:14:39;;;;;;;35.40;30.30;;;12.30;99.90;;;11.87;79.93;100175.44;5102293;28;20672;-78
2023/04/23 06:17:11;;;;;;;35.93;29.43;;;12.40;99.90;;;11.94;79.70;100176.38;5100161;28;20189;-78
2023/04/23 06:19:43;;;;;;;37.23;30.00;;;12.40;99.90;;;11.85;79.24;100182.81;5100465;28;20232;-77
2023/04/23 06:22:18;;;;;;;36.77;29.93;;;12.40;99.90;;;11.95;78.38;100182.56;5101540;28;20189;-78
2023/04/23 06:24:52;;;;;;;36.07;29.67;;;12.40;99.90;;;11.88;79.17;100177.09;5103187;28;20189;-78
2023/04/23 06:27:25;;;;;;;36.23;29.00;;;12.40;99.90;;;11.99;79.10;100175.81;5101355;28;20238;-77
2023/04/23 06:30:05;;;;;;;37.07;30.03;;;12.40;99.90;;;11.85;78.24;100171.28;5104124;28;20748;-78
2023/04/23 06:32:36;;;;;;;37.97;30.20;;;12.40;99.90;;;11.82;79.03;100176.97;5100267;28;20185;-78
2023/04/23 06:35:09;;;;;;;36.33;30.80;;;12.30;99.90;;;11.82;78.79;100180.50;5098709;28;20551;-79
2023/04/23 06:37:40;;;;;;;34.33;29.67;;;12.30;99.90;;;11.85;78.85;100177.44;5098754;28;20648;-78
2023/04/23 06:40:14;;;;;;;34.97;30.20;;;12.30;99.90;;;11.90;79.32;100168.84;5098954;28;20189;-78
2023/04/23 06:42:47;;;;;;;34.57;29.37;;;12.40;99.90;;;11.99;78.49;100167.75;5100140;28;20193;-78
2023/04/23 06:45:19;;;;;;;37.47;30.00;;;12.50;99.90;;;12.02;78.65;100170.91;5099993;28;20189;-78
2023/04/23 06:47:50;;;;;;;36.07;30.37;;;12.50;99.90;;;12.00;79.49;100169.44;5100578;28;20227;-78
2023/04/23 06:50:22;;;;;;;37.77;31.27;;;12.50;99.90;;;12.05;79.31;100177.78;5100710;28;20280;-78
2023/04/23 06:52:55;;;;;;;39.10;32.33;;;12.50;99.90;;;11.95;79.56;100177.22;5100371;28;20196;-78
2023/04/23 06:55:27;;;;;;;36.23;31.90;;;12.50;99.90;;;11.95;79.52;100178.00;5100735;28;20278;-79
2023/04/23 06:58:02;;;;;;;39.30;32.50;;;12.40;99.90;;;11.93;79.93;100168.50;5102006;28;20228;-78
2023/04/23 07:00:34;;;;;;;39.53;31.03;;;12.40;99.90;;;11.96;80.38;100162.75;5102719;28;20212;-78
2023/04/23 07:03:06;;;;;;;35.27;30.87;;;12.40;99.90;;;12.01;80.31;100168.41;5104420;28;20236;-78
2023/04/23 07:05:38;;;;;;;38.73;31.97;;;12.50;99.90;;;11.86;80.67;100178.28;5105019;28;20192;-78
2023/04/23 07:08:09;;;;;;;37.23;31.43;;;12.30;99.90;;;11.98;80.09;100166.09;5112608;28;20216;-78
2023/04/23 07:10:41;;;;;;;38.03;32.33;;;12.40;99.90;;;12.01;80.92;100155.00;5121534;28;20169;-77
2023/04/23 07:13:15;;;;;;;40.53;32.63;;;12.50;99.90;;;11.93;80.24;100157.75;5121676;28;20169;-76
2023/04/23 07:15:47;;;;;;;39.03;31.60;;;12.40;99.90;;;11.97;81.08;100167.13;5121538;28;20221;-77
2023/04/23 07:18:19;;;;;;;41.30;33.00;;;12.50;99.90;;;11.95;80.57;100155.75;5120946;28;20248;-78
2023/04/23 07:20:51;;;;;;;39.47;32.83;;;12.40;99.90;;;11.92;80.66;100161.44;5120751;28;20228;-78
2023/04/23 07:23:23;;;;;;;39.07;31.77;;;12.40;99.90;;;11.73;80.14;100161.97;5101036;28;20630;-78
2023/04/23 07:25:56;;;;;;;38.97;32.63;;;12.30;99.90;;;11.75;80.23;100159.97;5097881;28;20185;-79
2023/04/23 07:28:29;;;;;;;48.80;37.93;;;12.30;99.90;;;11.76;80.65;100156.25;5111006;28;20221;-77
2023/04/23 07:31:01;;;;;;;46.03;36.10;;;12.30;99.90;;;11.92;80.61;100156.09;5120750;28;20177;-78
2023/04/23 07:33:33;;;;;;;43.77;33.90;;;12.40;99.90;;;11.88;79.63;100146.75;5115181;28;20191;-78
2023/04/23 07:36:05;;;;;;;45.93;37.53;;;12.40;99.90;;;11.90;79.72;100147.41;5097594;28;20209;-78
2023/04/23 07:38:37;;;;;;;41.43;33.43;;;12.50;99.90;;;11.94;79.78;100148.72;5106903;28;20212;-77
2023/04/23 07:41:09;;;;;;;44.90;35.03;;;12.50;99.90;;;11.83;78.81;100141.94;5119680;28;20193;-78
2023/04/23 07:43:42;;;;;;;55.83;45.40;;;12.40;99.90;;;11.91;81.44;100149.06;5119413;28;20173;-77
2023/04/23 07:46:14;;;;;;;46.17;36.17;;;12.40;99.90;;;11.95;81.24;100153.88;5119398;28;20180;-76
2023/04/23 07:48:46;;;;;;;45.67;34.83;;;12.50;99.90;;;11.94;80.77;100154.06;5118384;28;20224;-77
2023/04/23 07:51:18;;;;;;;42.53;35.40;;;12.50;99.90;;;12.04;80.07;100147.41;5116260;28;20189;-78
2023/04/23 07:53:50;;;;;;;41.57;34.00;;;12.60;99.90;;;12.15;81.03;100146.97;5108448;28;20193;-78
2023/04/23 07:56:23;;;;;;;46.90;37.73;;;12.70;99.90;;;12.16;81.21;100150.47;5096623;28;20209;-78
2023/04/23 07:58:57;;;;;;;44.80;35.57;;;12.70;99.90;;;12.29;80.47;100150.69;5095999;28;20241;-78
2023/04/23 08:01:29;;;;;;;44.73;37.17;;;12.80;99.90;;;12.28;78.92;100157.06;5095919;28;20204;-78
2023/04/23 08:04:01;;;;;;;48.33;38.50;;;12.80;99.90;;;12.29;78.24;100152.53;5095428;28;20193;-79
2023/04/23 08:06:34;;;;;;;56.10;45.37;;;12.90;99.90;;;12.36;79.76;100148.06;5095714;28;20188;-79
2023/04/23 08:09:06;;;;;;;47.43;38.27;;;12.90;99.90;;;12.31;77.72;100140.56;5095402;28;20235;-80
2023/04/23 08:11:38;;;;;;;46.50;39.10;;;12.90;99.90;;;12.39;78.39;100136.97;5095625;28;20207;-78
2023/04/23 08:14:11;;;;;;;39.97;34.60;;;12.90;99.90;;;12.45;78.92;100131.69;5095406;28;20274;-78
2023/04/23 08:16:43;;;;;;;39.47;32.80;;;13.00;99.90;;;12.50;76.70;100123.06;5094819;28;20184;-78
2023/04/23 08:19:16;;;;;;;38.33;31.80;;;13.10;99.90;;;12.62;76.86;100125.06;5094746;28;20232;-78
2023/04/23 08:21:48;;;;;;;36.17;30.67;;;13.20;99.90;;;12.73;77.49;100117.56;5095695;28;20243;-80
2023/04/23 08:24:20;;;;;;;32.47;26.97;;;13.30;99.90;;;12.73;74.50;100113.00;5095475;28;20189;-79
2023/04/23 08:26:52;;;;;;;30.57;26.27;;;13.30;99.90;;;12.83;76.23;100108.16;5096541;28;20537;-78
2023/04/23 08:29:25;;;;;;;32.73;27.00;;;13.40;99.90;;;12.94;76.29;100120.28;5107800;28;20229;-78
2023/04/23 08:31:57;;;;;;;40.97;34.30;;;13.50;99.90;;;13.04;75.90;100120.78;5100989;28;20642;-78
2023/04/23 08:34:29;;;;;;;40.80;34.03;;;13.60;99.90;;;13.14;76.10;100124.03;5096152;28;20699;-78
2023/04/23 08:37:01;;;;;;;33.77;27.47;;;13.70;99.90;;;13.14;75.10;100127.56;5094778;28;20189;-80
2023/04/23 08:39:33;;;;;;;32.47;27.07;;;13.70;99.90;;;13.22;74.37;100118.50;5094680;28;20231;-78
2023/04/23 08:42:15;;;;;;;28.87;24.77;;;13.80;99.90;;;13.24;70.84;100121.84;5094767;28;20272;-78
2023/04/23 08:44:51;;;;;;;26.57;23.67;;;13.80;98.20;;;13.40;73.26;100116.19;5094620;28;20185;-78
2023/04/23 08:47:32;;;;;;;27.13;24.07;;;14.00;99.80;;;13.49;73.59;100114.22;5094946;28;20257;-79
2023/04/23 08:50:06;;;;;;;30.00;26.13;;;14.00;99.60;;;13.53;73.21;100128.91;5094927;28;20560;-79
2023/04/23 08:52:42;;;;;;;29.53;25.40;;;14.10;99.30;;;13.55;70.93;100127.72;5094815;28;20196;-79
2023/04/23 08:55:14;;;;;;;25.70;22.90;;;14.10;98.90;;;13.63;72.03;100132.94;5093317;28;20231;-77
2023/04/23 08:57:48;;;;;;;26.30;22.67;;;14.20;99.10;;;13.68;68.38;100133.19;5094444;28;20225;-77
2023/04/23 09:00:24;;;;;;;24.93;21.17;;;14.20;97.10;;;13.81;67.62;100131.63;5093851;28;20232;-77
2023/04/23 09:02:58;;;;;;;24.50;20.63;;;14.40;97.00;;;13.93;68.21;100135.44;5094100;28;20189;-78
2023/04/23 09:05:30;;;;;;;27.93;23.27;;;14.40;97.20;;;13.88;67.45;100129.81;5094221;28;20652;-77
2023/04/23 09:08:03;;;;;;;27.17;23.50;;;14.40;96.90;;;13.90;70.05;100122.41;5093878;28;20221;-78
2023/04/23 09:10:37;;;;;;;23.10;19.93;;;14.40;98.00;;;13.88;68.12;100119.88;5094503;28;20634;-78
2023/04/23 09:13:09;;;;;;;22.60;19.50;;;14.40;97.40;;;14.07;66.91;100112.97;5094682;28;20196;-79
2023/04/23 09:15:43;;;;;;;22.87;20.10;;;14.50;96.50;;;14.10;65.78;100108.03;5094194;28;20665;-78
2023/04/23 09:18:16;;;;;;;22.87;20.37;;;14.70;95.90;;;14.23;65.40;100107.25;5094488;28;20231;-79
2023/04/23 09:20:49;;;;;;;48.23;38.67;;;14.80;95.80;;;14.26;66.10;100101.47;5093982;28;20649;-79
2023/04/23 09:23:26;;;;;;;26.90;22.77;;;14.80;96.00;;;14.34;66.12;100101.34;5094340;28;20633;-79
2023/04/23 09:25:57;;;;;;;25.07;19.10;;;14.90;95.90;;;14.47;62.62;100100.56;5094309;28;20238;-79
2023/04/23 09:28:39;;;;;;;22.87;18.67;;;15.00;94.90;;;14.30;60.05;100096.53;5094530;28;20228;-79
2023/04/23 09:31:13;;;;;;;20.30;17.03;;;14.80;92.90;;;14.44;63.24;100088.34;5094759;28;20306;-79
2023/04/23 09:33:50;;;;;;;19.03;16.07;;;15.00;94.40;;;14.59;64.77;100091.72;5094500;28;20192;-79
2023/04/23 09:36:25;;;;;;;21.00;17.43;;;15.10;95.30;;;14.75;62.19;100089.69;5094744;28;20579;-80
2023/04/23 09:39:00;;;;;;;20.93;16.57;;;15.30;94.30;;;14.79;61.19;100093.66;5094952;28;20235;-79
2023/04/23 09:41:32;;;;;;;22.77;19.20;;;15.30;93.50;;;14.86;63.47;100089.94;5094592;28;20200;-79
2023/04/23 09:44:07;;;;;;;22.50;18.73;;;15.40;94.60;;;14.94;63.69;100087.03;5094024;28;20193;-79
2023/04/23 09:46:43;;;;;;;26.77;22.67;;;15.50;94.80;;;15.05;64.07;100082.91;5093804;28;20188;-76
2023/04/23 09:49:17;;;;;;;25.03;20.27;;;15.60;95.10;;;15.06;60.77;100087.28;5093477;28;20612;-76
2023/04/23 09:51:51;;;;;;;23.07;19.13;;;15.60;93.20;;;15.11;61.95;100080.22;5094063;28;20189;-76
2023/04/23 09:54:25;;;;;;;19.17;17.07;;;15.70;94.10;;;15.48;62.22;100088.78;5093836;28;20191;-76
2023/04/23 09:57:00;;;;;;;19.93;17.03;;;15.80;94.50;;;15.55;61.78;100087.75;5093329;28;20785;-76
2023/04/23 09:59:33;;;;;;;23.07;20.20;;;16.10;93.60;;;15.54;60.78;100080.72;5093352;28;20239;-77
2023/04/23 10:02:26;;;;;;;19.30;16.93;;;16.10;92.80;;;15.58;59.97;100087.31;5093699;28;20189;-77
2023/04/23 10:05:00;;;;;;;19.47;17.00;;;16.10;92.70;;;15.59;59.62;100093.56;5093941;28;20228;-75
2023/04/23 10:07:52;;;;;;;17.73;15.53;;;16.10;92.60;;;15.63;60.63;100090.25;5093740;28;20228;-74
2023/04/23 10:10:25;;;;;;;18.60;16.20;;;16.20;93.50;;;15.72;60.64;100091.66;5093718;28;20193;-77
2023/04/23 10:12:59;;;;;;;17.03;15.13;;;16.20;93.10;;;15.81;61.40;100084.22;5094474;28;20186;-76
2023/04/23 10:15:33;;;;;;;14.63;13.10;;;16.30;93.30;;;15.87;60.08;100082.53;5094868;28;20185;-76
2023/04/23 10:18:08;;;;;;;13.27;11.87;;;16.40;93.30;;;15.94;53.76;100069.84;5093477;28;20792;-76
2023/04/23 10:20:40;;;;;;;14.33;11.60;;;16.40;88.90;;;16.17;55.56;100070.19;5093809;28;20197;-76
2023/04/23 10:23:14;;;;;;;14.17;11.43;;;16.60;90.60;;;16.26;57.61;100068.94;5093579;28;20204;-76
2023/04/23 10:25:47;;;;;;;11.17;9.63;;;16.70;91.20;;;16.33;56.67;100063.50;5093653;28;20185;-76